sensor_id;sensor_type;location;lat;lon;timestamp;temperature;humidity
59999;DHT22;45859;51.378;6.736;2022-07-06T00:01:19;14.60;99.90
59999;DHT22;45859;51.378;6.736;2022-07-06T00:03:45;14.50;99.90
59999;DHT22;45859;51.378;6.736;2022-07-06T00:06:11;14.50;99.90
59999;DHT22;45859;51.378;6.736;2022-07-06T00:08:37;14.40;99.90
59999;DHT22;45859;51.378;6.736;2022-07-06T00:11:03;14.50;99.90
59999;DHT22;45859;51.378;6.736;2022-07-06T00:13:28;14.50;99.90
59999;DHT22;45859;51.378;6.736;2022-07-06T00:15:54;14.40;99.90
59999;DHT22;45859;51.378;6.736;2022-07-06T00:18:20;14.40;99.90
59999;DHT22;45859;51.378;6.736;2022-07-06T00:20:45;14.40;99.90
59999;DHT22;45859;51.378;6.736;2022-07-06T00:23:11;14.30;99.90
59999;DHT22;45859;51.378;6.736;2022-07-06T00:25:37;14.30;99.90
59999;DHT22;45859;51.378;6.736;2022-07-06T00:28:03;14.30;99.90
59999;DHT22;45859;51.378;6.736;2022-07-06T00:30:29;14.20;99.90
59999;DHT22;45859;51.378;6.736;2022-07-06T00:32:55;14.20;99.90
59999;DHT22;45859;51.378;6.736;2022-07-06T00:35:20;14.20;99.90
59999;DHT22;45859;51.378;6.736;2022-07-06T00:37:46;14.20;99.90
59999;DHT22;45859;51.378;6.736;2022-07-06T00:40:12;14.10;99.90
59999;DHT22;45859;51.378;6.736;2022-07-06T00:42:45;14.10;99.90
59999;DHT22;45859;51.378;6.736;2022-07-06T00:45:11;14.10;99.90
59999;DHT22;45859;51.378;6.736;2022-07-06T00:47:38;14.10;99.90
59999;DHT22;45859;51.378;6.736;2022-07-06T00:50:05;14.10;99.90
59999;DHT22;45859;51.378;6.736;2022-07-06T00:52:41;14.00;99.90
59999;DHT22;45859;51.378;6.736;2022-07-06T00:55:08;14.00;99.90
59999;DHT22;45859;51.378;6.736;2022-07-06T00:57:35;14.00;99.90
59999;DHT22;45859;51.378;6.736;2022-07-06T01:00:05;14.10;99.90
59999;DHT22;45859;51.378;6.736;2022-07-06T01:02:31;13.80;99.90
59999;DHT22;45859;51.378;6.736;2022-07-06T01:04:57;13.80;99.90
59999;DHT22;45859;51.378;6.736;2022-07-06T01:07:23;13.70;99.90
59999;DHT22;45859;51.378;6.736;2022-07-06T01:09:49;13.70;99.90
59999;DHT22;45859;51.378;6.736;2022-07-06T01:12:15;13.70;99.90
59999;DHT22;45859;51.378;6.736;2022-07-06T01:14:41;13.60;99.90
59999;DHT22;45859;51.378;6.736;2022-07-06T01:17:08;13.60;99.90
59999;DHT22;45859;51.378;6.736;2022-07-06T01:19:33;13.50;99.90
59999;DHT22;45859;51.378;6.736;2022-07-06T01:21:59;13.50;99.90
59999;DHT22;45859;51.378;6.736;2022-07-06T01:24:25;13.40;99.90
59999;DHT22;45859;51.378;6.736;2022-07-06T01:26:51;13.40;99.90
59999;DHT22;45859;51.378;6.736;2022-07-06T01:29:17;13.40;99.90
59999;DHT22;45859;51.378;6.736;2022-07-06T01:31:47;13.30;99.90
59999;DHT22;45859;51.378;6.736;2022-07-06T01:34:15;13.30;99.90
59999;DHT22;45859;51.378;6.736;2022-07-06T01:36:41;13.30;99.90
59999;DHT22;45859;51.378;6.736;2022-07-06T01:39:08;13.30;99.90
59999;DHT22;45859;51.378;6.736;2022-07-06T01:41:34;13.40;99.90
59999;DHT22;45859;51.378;6.736;2022-07-06T01:44:00;13.30;99.90
59999;DHT22;45859;51.378;6.736;2022-07-06T01:46:25;13.40;99.90
59999;DHT22;45859;51.378;6.736;2022-07-06T01:48:51;13.40;99.90
59999;DHT22;45859;51.378;6.736;2022-07-06T01:51:17;13.50;99.90
59999;DHT22;45859;51.378;6.736;2022-07-06T01:53:43;13.50;99.90
59999;DHT22;45859;51.378;6.736;2022-07-06T01:56:09;13.50;99.90
59999;DHT22;45859;51.378;6.736;2022-07-06T01:58:35;13.60;99.90
59999;DHT22;45859;51.378;6.736;2022-07-06T02:01:05;13.70;99.90
59999;DHT22;45859;51.378;6.736;2022-07-06T02:03:32;13.60;99.90
59999;DHT22;45859;51.378;6.736;2022-07-06T02:05:57;13.60;99.90
59999;DHT22;45859;51.378;6.736;2022-07-06T02:08:23;13.60;99.90
59999;DHT22;45859;51.378;6.736;2022-07-06T02:10:48;13.50;99.90
59999;DHT22;45859;51.378;6.736;2022-07-06T02:13:14;13.50;99.90
59999;DHT22;45859;51.378;6.736;2022-07-06T02:15:40;13.40;99.90
59999;DHT22;45859;51.378;6.736;2022-07-06T02:18:05;13.40;99.90
59999;DHT22;45859;51.378;6.736;2022-07-06T02:20:31;13.30;99.90
59999;DHT22;45859;51.378;6.736;2022-07-06T02:22:57;13.40;99.90
59999;DHT22;45859;51.378;6.736;2022-07-06T02:25:22;13.30;99.90
59999;DHT22;45859;51.378;6.736;2022-07-06T02:27:48;13.30;99.90
59999;DHT22;45859;51.378;6.736;2022-07-06T02:30:13;13.20;99.90
59999;DHT22;45859;51.378;6.736;2022-07-06T02:32:39;13.20;99.90
59999;DHT22;45859;51.378;6.736;2022-07-06T02:35:05;13.20;99.90
59999;DHT22;45859;51.378;6.736;2022-07-06T02:37:31;13.10;99.90
59999;DHT22;45859;51.378;6.736;2022-07-06T02:39:56;13.10;99.90
59999;DHT22;45859;51.378;6.736;2022-07-06T02:42:22;13.00;99.90
59999;DHT22;45859;51.378;6.736;2022-07-06T02:44:48;13.00;99.90
59999;DHT22;45859;51.378;6.736;2022-07-06T02:47:13;12.90;99.90
59999;DHT22;45859;51.378;6.736;2022-07-06T02:49:39;12.90;99.90
59999;DHT22;45859;51.378;6.736;2022-07-06T02:52:04;12.80;99.90
59999;DHT22;45859;51.378;6.736;2022-07-06T02:54:30;12.80;99.90
59999;DHT22;45859;51.378;6.736;2022-07-06T02:56:56;12.80;99.90
59999;DHT22;45859;51.378;6.736;2022-07-06T02:59:21;12.70;99.90
59999;DHT22;45859;51.378;6.736;2022-07-06T03:01:47;12.80;99.90
59999;DHT22;45859;51.378;6.736;2022-07-06T03:04:13;12.60;99.90
59999;DHT22;45859;51.378;6.736;2022-07-06T03:06:38;12.60;99.90
59999;DHT22;45859;51.378;6.736;2022-07-06T03:09:04;12.60;99.90
59999;DHT22;45859;51.378;6.736;2022-07-06T03:11:30;12.60;99.90
59999;DHT22;45859;51.378;6.736;2022-07-06T03:13:55;12.50;99.90
59999;DHT22;45859;51.378;6.736;2022-07-06T03:16:21;12.50;99.90
59999;DHT22;45859;51.378;6.736;2022-07-06T03:18:46;12.50;99.90
59999;DHT22;45859;51.378;6.736;2022-07-06T03:21:12;12.40;99.90
59999;DHT22;45859;51.378;6.736;2022-07-06T03:23:37;12.40;99.90
59999;DHT22;45859;51.378;6.736;2022-07-06T03:26:03;12.30;99.90
59999;DHT22;45859;51.378;6.736;2022-07-06T03:28:29;12.30;99.90
59999;DHT22;45859;51.378;6.736;2022-07-06T03:30:54;12.30;99.90
59999;DHT22;45859;51.378;6.736;2022-07-06T03:33:20;12.30;99.90
59999;DHT22;45859;51.378;6.736;2022-07-06T03:35:46;12.30;99.90
59999;DHT22;45859;51.378;6.736;2022-07-06T03:38:11;12.30;99.90
59999;DHT22;45859;51.378;6.736;2022-07-06T03:40:37;12.40;99.90
59999;DHT22;45859;51.378;6.736;2022-07-06T03:43:02;12.30;99.90
59999;DHT22;45859;51.378;6.736;2022-07-06T03:45:28;12.30;99.90
59999;DHT22;45859;51.378;6.736;2022-07-06T03:47:54;12.30;99.90
59999;DHT22;45859;51.378;6.736;2022-07-06T03:50:19;12.30;99.90
59999;DHT22;45859;51.378;6.736;2022-07-06T03:52:45;12.40;99.90
59999;DHT22;45859;51.378;6.736;2022-07-06T03:55:11;12.40;99.90
59999;DHT22;45859;51.378;6.736;2022-07-06T03:57:40;12.50;99.90
59999;DHT22;45859;51.378;6.736;2022-07-06T04:00:07;12.60;99.90
59999;DHT22;45859;51.378;6.736;2022-07-06T04:02:33;12.60;99.90
59999;DHT22;45859;51.378;6.736;2022-07-06T04:04:59;12.70;99.90
59999;DHT22;45859;51.378;6.736;2022-07-06T04:07:25;12.80;99.90
59999;DHT22;45859;51.378;6.736;2022-07-06T04:09:51;12.80;99.90
59999;DHT22;45859;51.378;6.736;2022-07-06T04:12:17;12.90;99.90
59999;DHT22;45859;51.378;6.736;2022-07-06T04:14:43;12.80;99.90
59999;DHT22;45859;51.378;6.736;2022-07-06T04:17:08;12.80;99.90
59999;DHT22;45859;51.378;6.736;2022-07-06T04:19:52;12.80;99.90
59999;DHT22;45859;51.378;6.736;2022-07-06T04:22:18;12.80;99.90
59999;DHT22;45859;51.378;6.736;2022-07-06T04:24:44;12.80;99.90
59999;DHT22;45859;51.378;6.736;2022-07-06T04:27:09;12.80;99.90
59999;DHT22;45859;51.378;6.736;2022-07-06T04:29:35;12.90;99.90
59999;DHT22;45859;51.378;6.736;2022-07-06T04:32:01;12.80;99.90
59999;DHT22;45859;51.378;6.736;2022-07-06T04:34:26;12.90;99.90
59999;DHT22;45859;51.378;6.736;2022-07-06T04:36:52;13.10;99.90
59999;DHT22;45859;51.378;6.736;2022-07-06T04:39:18;13.20;99.90
59999;DHT22;45859;51.378;6.736;2022-07-06T04:41:43;13.20;99.90
59999;DHT22;45859;51.378;6.736;2022-07-06T04:44:09;13.30;99.90
59999;DHT22;45859;51.378;6.736;2022-07-06T04:46:34;13.30;99.90
59999;DHT22;45859;51.378;6.736;2022-07-06T04:49:00;13.50;99.90
59999;DHT22;45859;51.378;6.736;2022-07-06T04:51:26;13.50;99.90
59999;DHT22;45859;51.378;6.736;2022-07-06T04:53:51;13.60;99.90
59999;DHT22;45859;51.378;6.736;2022-07-06T04:56:17;13.70;99.90
59999;DHT22;45859;51.378;6.736;2022-07-06T04:58:43;13.90;99.90
59999;DHT22;45859;51.378;6.736;2022-07-06T05:01:08;14.00;99.90
59999;DHT22;45859;51.378;6.736;2022-07-06T05:03:34;14.00;99.90
59999;DHT22;45859;51.378;6.736;2022-07-06T05:06:06;14.00;99.90
59999;DHT22;45859;51.378;6.736;2022-07-06T05:08:33;14.00;99.90
59999;DHT22;45859;51.378;6.736;2022-07-06T05:10:58;14.00;99.90
59999;DHT22;45859;51.378;6.736;2022-07-06T05:13:24;14.10;99.90
59999;DHT22;45859;51.378;6.736;2022-07-06T05:15:50;14.20;99.90
59999;DHT22;45859;51.378;6.736;2022-07-06T05:18:15;14.20;99.90
59999;DHT22;45859;51.378;6.736;2022-07-06T05:20:41;14.20;99.90
59999;DHT22;45859;51.378;6.736;2022-07-06T05:23:07;14.30;99.90
59999;DHT22;45859;51.378;6.736;2022-07-06T05:25:32;14.30;99.90
59999;DHT22;45859;51.378;6.736;2022-07-06T05:27:59;14.40;99.90
59999;DHT22;45859;51.378;6.736;2022-07-06T05:30:25;14.40;99.90
59999;DHT22;45859;51.378;6.736;2022-07-06T05:32:50;14.40;99.90
59999;DHT22;45859;51.378;6.736;2022-07-06T05:35:17;14.40;99.90
59999;DHT22;45859;51.378;6.736;2022-07-06T05:37:43;14.50;99.90
59999;DHT22;45859;51.378;6.736;2022-07-06T05:40:09;14.60;99.90
59999;DHT22;45859;51.378;6.736;2022-07-06T05:42:35;14.70;99.90
59999;DHT22;45859;51.378;6.736;2022-07-06T05:45:00;14.80;99.90
59999;DHT22;45859;51.378;6.736;2022-07-06T05:47:26;14.90;99.90
59999;DHT22;45859;51.378;6.736;2022-07-06T05:50:10;15.10;99.90
59999;DHT22;45859;51.378;6.736;2022-07-06T05:52:43;15.30;99.90
59999;DHT22;45859;51.378;6.736;2022-07-06T05:55:11;15.50;99.90
59999;DHT22;45859;51.378;6.736;2022-07-06T05:57:37;15.50;99.90
59999;DHT22;45859;51.378;6.736;2022-07-06T06:00:04;15.60;99.90
59999;DHT22;45859;51.378;6.736;2022-07-06T06:02:38;16.00;99.90
59999;DHT22;45859;51.378;6.736;2022-07-06T06:05:05;16.70;99.90
59999;DHT22;45859;51.378;6.736;2022-07-06T06:07:33;16.90;99.90
59999;DHT22;45859;51.378;6.736;2022-07-06T06:09:59;17.00;99.90
59999;DHT22;45859;51.378;6.736;2022-07-06T06:12:25;17.10;99.90
59999;DHT22;45859;51.378;6.736;2022-07-06T06:14:51;17.10;99.90
59999;DHT22;45859;51.378;6.736;2022-07-06T06:17:16;17.00;99.90
59999;DHT22;45859;51.378;6.736;2022-07-06T06:19:42;17.00;99.90
59999;DHT22;45859;51.378;6.736;2022-07-06T06:22:07;17.10;99.90
59999;DHT22;45859;51.378;6.736;2022-07-06T06:24:33;17.30;99.90
59999;DHT22;45859;51.378;6.736;2022-07-06T06:26:59;17.30;99.90
59999;DHT22;45859;51.378;6.736;2022-07-06T06:29:24;17.30;99.90
59999;DHT22;45859;51.378;6.736;2022-07-06T06:31:50;17.40;99.90
59999;DHT22;45859;51.378;6.736;2022-07-06T06:34:16;17.30;99.90
59999;DHT22;45859;51.378;6.736;2022-07-06T06:36:42;17.30;99.90
59999;DHT22;45859;51.378;6.736;2022-07-06T06:39:07;17.20;99.90
59999;DHT22;45859;51.378;6.736;2022-07-06T06:41:33;17.20;99.90
59999;DHT22;45859;51.378;6.736;2022-07-06T06:43:59;17.20;99.90
59999;DHT22;45859;51.378;6.736;2022-07-06T06:46:24;17.30;99.90
59999;DHT22;45859;51.378;6.736;2022-07-06T06:48:50;17.30;99.90
59999;DHT22;45859;51.378;6.736;2022-07-06T06:51:15;17.40;99.90
59999;DHT22;45859;51.378;6.736;2022-07-06T06:53:41;17.50;99.90
59999;DHT22;45859;51.378;6.736;2022-07-06T06:56:07;17.50;99.90
59999;DHT22;45859;51.378;6.736;2022-07-06T06:58:34;17.70;99.90
59999;DHT22;45859;51.378;6.736;2022-07-06T07:00:59;17.80;99.90
59999;DHT22;45859;51.378;6.736;2022-07-06T07:03:25;17.70;99.90
59999;DHT22;45859;51.378;6.736;2022-07-06T07:05:50;17.70;99.90
59999;DHT22;45859;51.378;6.736;2022-07-06T07:08:16;17.70;99.90
59999;DHT22;45859;51.378;6.736;2022-07-06T07:10:42;17.70;99.90
59999;DHT22;45859;51.378;6.736;2022-07-06T07:13:07;17.80;99.90
59999;DHT22;45859;51.378;6.736;2022-07-06T07:15:33;17.90;99.90
59999;DHT22;45859;51.378;6.736;2022-07-06T07:17:59;18.10;99.90
59999;DHT22;45859;51.378;6.736;2022-07-06T07:20:24;18.10;99.90
59999;DHT22;45859;51.378;6.736;2022-07-06T07:22:50;18.10;99.90
59999;DHT22;45859;51.378;6.736;2022-07-06T07:25:16;18.20;99.90
59999;DHT22;45859;51.378;6.736;2022-07-06T07:27:42;18.40;99.90
59999;DHT22;45859;51.378;6.736;2022-07-06T07:30:08;18.50;99.90
59999;DHT22;45859;51.378;6.736;2022-07-06T07:32:34;18.50;99.90
59999;DHT22;45859;51.378;6.736;2022-07-06T07:35:00;18.80;99.90
59999;DHT22;45859;51.378;6.736;2022-07-06T07:37:26;18.90;99.90
59999;DHT22;45859;51.378;6.736;2022-07-06T07:39:52;19.20;99.90
59999;DHT22;45859;51.378;6.736;2022-07-06T07:42:17;19.70;99.90
59999;DHT22;45859;51.378;6.736;2022-07-06T07:44:43;19.90;99.90
59999;DHT22;45859;51.378;6.736;2022-07-06T07:47:09;20.20;99.90
59999;DHT22;45859;51.378;6.736;2022-07-06T07:49:35;20.10;99.90
59999;DHT22;45859;51.378;6.736;2022-07-06T07:52:00;19.90;99.90
59999;DHT22;45859;51.378;6.736;2022-07-06T07:54:26;19.60;99.90
59999;DHT22;45859;51.378;6.736;2022-07-06T07:56:51;19.50;99.90
59999;DHT22;45859;51.378;6.736;2022-07-06T07:59:17;19.70;99.90
59999;DHT22;45859;51.378;6.736;2022-07-06T08:01:43;19.70;99.90
59999;DHT22;45859;51.378;6.736;2022-07-06T08:04:09;19.70;99.90
59999;DHT22;45859;51.378;6.736;2022-07-06T08:06:34;19.90;99.90
59999;DHT22;45859;51.378;6.736;2022-07-06T08:09:00;19.90;99.90
59999;DHT22;45859;51.378;6.736;2022-07-06T08:11:26;20.10;99.90
59999;DHT22;45859;51.378;6.736;2022-07-06T08:13:51;20.10;99.90
59999;DHT22;45859;51.378;6.736;2022-07-06T08:16:17;20.20;99.90
59999;DHT22;45859;51.378;6.736;2022-07-06T08:18:43;20.20;99.90
59999;DHT22;45859;51.378;6.736;2022-07-06T08:21:08;20.30;99.90
59999;DHT22;45859;51.378;6.736;2022-07-06T08:23:34;20.30;99.90
59999;DHT22;45859;51.378;6.736;2022-07-06T08:26:01;20.60;99.90
59999;DHT22;45859;51.378;6.736;2022-07-06T08:28:27;21.40;99.90
59999;DHT22;45859;51.378;6.736;2022-07-06T08:30:53;22.30;99.90
59999;DHT22;45859;51.378;6.736;2022-07-06T08:33:20;23.60;99.90
59999;DHT22;45859;51.378;6.736;2022-07-06T08:35:45;24.70;99.90
59999;DHT22;45859;51.378;6.736;2022-07-06T08:38:11;25.50;99.90
59999;DHT22;45859;51.378;6.736;2022-07-06T08:40:38;26.20;99.90
59999;DHT22;45859;51.378;6.736;2022-07-06T08:43:05;26.60;99.90
59999;DHT22;45859;51.378;6.736;2022-07-06T08:45:36;27.30;99.90
59999;DHT22;45859;51.378;6.736;2022-07-06T08:48:05;27.40;99.90
59999;DHT22;45859;51.378;6.736;2022-07-06T08:50:32;27.40;99.90
59999;DHT22;45859;51.378;6.736;2022-07-06T08:52:58;27.40;99.90
59999;DHT22;45859;51.378;6.736;2022-07-06T08:55:26;27.90;99.90
59999;DHT22;45859;51.378;6.736;2022-07-06T08:57:55;27.90;99.90
59999;DHT22;45859;51.378;6.736;2022-07-06T09:00:22;26.90;99.90
59999;DHT22;45859;51.378;6.736;2022-07-06T09:02:49;25.70;99.90
59999;DHT22;45859;51.378;6.736;2022-07-06T09:05:17;24.50;99.90
59999;DHT22;45859;51.378;6.736;2022-07-06T09:07:45;24.50;99.90
59999;DHT22;45859;51.378;6.736;2022-07-06T09:10:15;25.10;99.90
59999;DHT22;45859;51.378;6.736;2022-07-06T09:12:42;26.10;99.90
59999;DHT22;45859;51.378;6.736;2022-07-06T09:15:08;26.60;99.90
59999;DHT22;45859;51.378;6.736;2022-07-06T09:17:38;27.60;99.90
59999;DHT22;45859;51.378;6.736;2022-07-06T09:20:10;27.50;99.90
59999;DHT22;45859;51.378;6.736;2022-07-06T09:22:37;27.00;99.90
59999;DHT22;45859;51.378;6.736;2022-07-06T09:25:05;26.20;99.90
59999;DHT22;45859;51.378;6.736;2022-07-06T09:27:37;25.40;99.90
59999;DHT22;45859;51.378;6.736;2022-07-06T09:30:03;25.20;99.90
59999;DHT22;45859;51.378;6.736;2022-07-06T09:32:30;25.80;99.90
59999;DHT22;45859;51.378;6.736;2022-07-06T09:34:56;26.80;99.90
59999;DHT22;45859;51.378;6.736;2022-07-06T09:37:22;27.40;99.90
59999;DHT22;45859;51.378;6.736;2022-07-06T09:39:51;28.00;99.90
59999;DHT22;45859;51.378;6.736;2022-07-06T09:42:24;29.10;99.90
59999;DHT22;45859;51.378;6.736;2022-07-06T09:44:51;29.20;99.90
59999;DHT22;45859;51.378;6.736;2022-07-06T09:47:18;29.70;99.90
59999;DHT22;45859;51.378;6.736;2022-07-06T09:49:45;29.60;99.90
59999;DHT22;45859;51.378;6.736;2022-07-06T09:52:13;29.10;99.90
59999;DHT22;45859;51.378;6.736;2022-07-06T09:54:40;28.50;99.90
59999;DHT22;45859;51.378;6.736;2022-07-06T09:57:06;27.80;99.90
59999;DHT22;45859;51.378;6.736;2022-07-06T09:59:34;27.20;99.90
59999;DHT22;45859;51.378;6.736;2022-07-06T10:02:07;26.50;99.90
59999;DHT22;45859;51.378;6.736;2022-07-06T10:04:34;26.20;99.90
59999;DHT22;45859;51.378;6.736;2022-07-06T10:07:01;25.70;99.90
59999;DHT22;45859;51.378;6.736;2022-07-06T10:09:29;25.50;99.90
59999;DHT22;45859;51.378;6.736;2022-07-06T10:11:57;25.40;99.90
59999;DHT22;45859;51.378;6.736;2022-07-06T10:14:24;25.30;99.90
59999;DHT22;45859;51.378;6.736;2022-07-06T10:16:51;25.00;99.90
59999;DHT22;45859;51.378;6.736;2022-07-06T10:19:19;24.80;99.90
59999;DHT22;45859;51.378;6.736;2022-07-06T10:21:46;24.60;99.90
59999;DHT22;45859;51.378;6.736;2022-07-06T10:24:13;24.50;99.90
59999;DHT22;45859;51.378;6.736;2022-07-06T10:26:40;24.70;99.90
59999;DHT22;45859;51.378;6.736;2022-07-06T10:29:07;25.10;99.90
59999;DHT22;45859;51.378;6.736;2022-07-06T10:31:34;25.20;99.90
59999;DHT22;45859;51.378;6.736;2022-07-06T10:34:04;25.60;99.90
59999;DHT22;45859;51.378;6.736;2022-07-06T10:36:30;25.30;99.90
59999;DHT22;45859;51.378;6.736;2022-07-06T10:38:57;25.00;99.90
59999;DHT22;45859;51.378;6.736;2022-07-06T10:41:34;24.30;99.90
59999;DHT22;45859;51.378;6.736;2022-07-06T10:44:16;25.40;99.90
59999;DHT22;45859;51.378;6.736;2022-07-06T10:46:49;25.30;99.90
59999;DHT22;45859;51.378;6.736;2022-07-06T10:49:16;25.40;99.90
59999;DHT22;45859;51.378;6.736;2022-07-06T10:51:42;25.30;99.90
59999;DHT22;45859;51.378;6.736;2022-07-06T10:54:09;24.80;99.90
59999;DHT22;45859;51.378;6.736;2022-07-06T10:56:45;24.40;99.90
59999;DHT22;45859;51.378;6.736;2022-07-06T11:01:40;24.10;99.90
59999;DHT22;45859;51.378;6.736;2022-07-06T11:04:09;23.90;99.90
59999;DHT22;45859;51.378;6.736;2022-07-06T11:06:37;23.70;99.90
59999;DHT22;45859;51.378;6.736;2022-07-06T11:14:05;23.50;99.90
59999;DHT22;45859;51.378;6.736;2022-07-06T11:16:58;23.70;99.90
59999;DHT22;45859;51.378;6.736;2022-07-06T11:19:26;23.80;99.90
59999;DHT22;45859;51.378;6.736;2022-07-06T11:21:54;24.20;99.90
59999;DHT22;45859;51.378;6.736;2022-07-06T11:24:31;24.40;99.90
59999;DHT22;45859;51.378;6.736;2022-07-06T11:26:59;24.60;99.90
59999;DHT22;45859;51.378;6.736;2022-07-06T11:29:26;24.60;99.90
59999;DHT22;45859;51.378;6.736;2022-07-06T11:31:57;24.60;99.90
59999;DHT22;45859;51.378;6.736;2022-07-06T11:34:26;24.80;99.90
59999;DHT22;45859;51.378;6.736;2022-07-06T11:39:34;23.90;99.90
59999;DHT22;45859;51.378;6.736;2022-07-06T11:42:01;23.70;99.90
59999;DHT22;45859;51.378;6.736;2022-07-06T11:44:29;23.50;99.90
59999;DHT22;45859;51.378;6.736;2022-07-06T11:46:55;23.40;99.90
59999;DHT22;45859;51.378;6.736;2022-07-06T11:49:23;23.40;99.90
59999;DHT22;45859;51.378;6.736;2022-07-06T11:51:48;23.50;99.90
59999;DHT22;45859;51.378;6.736;2022-07-06T11:54:17;23.50;99.90
59999;DHT22;45859;51.378;6.736;2022-07-06T11:56:47;23.30;99.90
59999;DHT22;45859;51.378;6.736;2022-07-06T11:59:14;23.40;99.90
59999;DHT22;45859;51.378;6.736;2022-07-06T12:01:41;23.20;99.90
59999;DHT22;45859;51.378;6.736;2022-07-06T12:04:10;23.20;99.90
59999;DHT22;45859;51.378;6.736;2022-07-06T12:06:36;23.30;99.90
59999;DHT22;45859;51.378;6.736;2022-07-06T12:09:02;23.20;99.90
59999;DHT22;45859;51.378;6.736;2022-07-06T12:11:34;23.10;99.90
59999;DHT22;45859;51.378;6.736;2022-07-06T12:14:02;22.90;99.90
59999;DHT22;45859;51.378;6.736;2022-07-06T12:16:36;23.10;99.90
59999;DHT22;45859;51.378;6.736;2022-07-06T12:19:04;23.20;99.90
59999;DHT22;45859;51.378;6.736;2022-07-06T12:21:31;23.40;99.90
59999;DHT22;45859;51.378;6.736;2022-07-06T12:23:57;23.50;99.90
59999;DHT22;45859;51.378;6.736;2022-07-06T12:26:25;23.50;99.90
59999;DHT22;45859;51.378;6.736;2022-07-06T12:29:09;23.70;99.90
59999;DHT22;45859;51.378;6.736;2022-07-06T12:34:15;23.90;99.90
59999;DHT22;45859;51.378;6.736;2022-07-06T12:36:51;24.00;99.90
59999;DHT22;45859;51.378;6.736;2022-07-06T12:39:19;23.80;99.90
59999;DHT22;45859;51.378;6.736;2022-07-06T12:41:54;23.60;99.90
59999;DHT22;45859;51.378;6.736;2022-07-06T12:44:24;23.50;99.90
59999;DHT22;45859;51.378;6.736;2022-07-06T12:47:04;23.50;99.90
59999;DHT22;45859;51.378;6.736;2022-07-06T12:49:30;23.50;99.90
59999;DHT22;45859;51.378;6.736;2022-07-06T12:52:08;23.40;99.90
59999;DHT22;45859;51.378;6.736;2022-07-06T12:54:43;23.30;99.90
59999;DHT22;45859;51.378;6.736;2022-07-06T12:57:22;23.00;99.90
59999;DHT22;45859;51.378;6.736;2022-07-06T13:07:25;22.60;99.90
59999;DHT22;45859;51.378;6.736;2022-07-06T13:09:51;22.70;99.90
59999;DHT22;45859;51.378;6.736;2022-07-06T13:12:17;22.70;99.90
59999;DHT22;45859;51.378;6.736;2022-07-06T13:14:43;22.70;99.90
59999;DHT22;45859;51.378;6.736;2022-07-06T13:17:09;22.70;99.90
59999;DHT22;45859;51.378;6.736;2022-07-06T13:19:34;22.60;99.90
59999;DHT22;45859;51.378;6.736;2022-07-06T13:22:00;22.80;99.90
59999;DHT22;45859;51.378;6.736;2022-07-06T13:24:26;22.90;99.90
59999;DHT22;45859;51.378;6.736;2022-07-06T13:26:54;23.00;99.90
59999;DHT22;45859;51.378;6.736;2022-07-06T13:29:20;22.80;99.90
59999;DHT22;45859;51.378;6.736;2022-07-06T13:31:46;22.70;99.90
59999;DHT22;45859;51.378;6.736;2022-07-06T13:34:12;22.80;99.90
59999;DHT22;45859;51.378;6.736;2022-07-06T13:36:39;22.60;99.90
59999;DHT22;45859;51.378;6.736;2022-07-06T13:39:05;22.50;99.90
59999;DHT22;45859;51.378;6.736;2022-07-06T13:41:31;22.50;99.90
59999;DHT22;45859;51.378;6.736;2022-07-06T13:43:57;22.50;99.90
59999;DHT22;45859;51.378;6.736;2022-07-06T13:46:26;22.70;99.90
59999;DHT22;45859;51.378;6.736;2022-07-06T13:48:53;22.60;99.90
59999;DHT22;45859;51.378;6.736;2022-07-06T13:51:18;22.60;99.90
59999;DHT22;45859;51.378;6.736;2022-07-06T13:53:44;22.70;99.90
59999;DHT22;45859;51.378;6.736;2022-07-06T13:56:11;22.70;99.90
59999;DHT22;45859;51.378;6.736;2022-07-06T13:58:37;22.80;99.90
59999;DHT22;45859;51.378;6.736;2022-07-06T14:01:03;22.80;99.90
59999;DHT22;45859;51.378;6.736;2022-07-06T14:03:29;22.80;99.90
59999;DHT22;45859;51.378;6.736;2022-07-06T14:05:59;23.00;99.90
59999;DHT22;45859;51.378;6.736;2022-07-06T14:08:26;23.30;99.90
59999;DHT22;45859;51.378;6.736;2022-07-06T14:10:53;23.30;99.90
59999;DHT22;45859;51.378;6.736;2022-07-06T14:13:19;23.40;99.90
59999;DHT22;45859;51.378;6.736;2022-07-06T14:15:45;23.30;99.90
59999;DHT22;45859;51.378;6.736;2022-07-06T14:18:11;23.20;99.90
59999;DHT22;45859;51.378;6.736;2022-07-06T14:20:37;23.30;99.90
59999;DHT22;45859;51.378;6.736;2022-07-06T14:23:03;23.20;99.90
59999;DHT22;45859;51.378;6.736;2022-07-06T14:25:29;23.10;99.90
59999;DHT22;45859;51.378;6.736;2022-07-06T14:27:55;23.20;99.90
59999;DHT22;45859;51.378;6.736;2022-07-06T14:30:21;23.10;99.90
59999;DHT22;45859;51.378;6.736;2022-07-06T14:32:46;23.20;99.90
59999;DHT22;45859;51.378;6.736;2022-07-06T14:35:12;23.10;99.90
59999;DHT22;45859;51.378;6.736;2022-07-06T14:37:38;23.00;99.90
59999;DHT22;45859;51.378;6.736;2022-07-06T14:40:04;23.10;99.90
59999;DHT22;45859;51.378;6.736;2022-07-06T14:42:30;23.00;99.90
59999;DHT22;45859;51.378;6.736;2022-07-06T14:44:56;22.80;99.90
59999;DHT22;45859;51.378;6.736;2022-07-06T14:47:22;22.80;99.90
59999;DHT22;45859;51.378;6.736;2022-07-06T14:49:47;22.80;99.90
59999;DHT22;45859;51.378;6.736;2022-07-06T14:52:13;22.80;99.90
59999;DHT22;45859;51.378;6.736;2022-07-06T14:54:39;22.60;99.90
59999;DHT22;45859;51.378;6.736;2022-07-06T14:57:05;22.60;99.90
59999;DHT22;45859;51.378;6.736;2022-07-06T14:59:34;22.50;99.90
59999;DHT22;45859;51.378;6.736;2022-07-06T15:02:00;22.50;99.90
59999;DHT22;45859;51.378;6.736;2022-07-06T15:04:26;22.60;99.90
59999;DHT22;45859;51.378;6.736;2022-07-06T15:06:52;22.70;99.90
59999;DHT22;45859;51.378;6.736;2022-07-06T15:09:18;22.80;99.90
59999;DHT22;45859;51.378;6.736;2022-07-06T15:11:44;22.80;99.90
59999;DHT22;45859;51.378;6.736;2022-07-06T15:14:11;22.70;99.90
59999;DHT22;45859;51.378;6.736;2022-07-06T15:16:37;22.80;99.90
59999;DHT22;45859;51.378;6.736;2022-07-06T15:19:03;22.80;99.90
59999;DHT22;45859;51.378;6.736;2022-07-06T15:21:29;22.80;99.90
59999;DHT22;45859;51.378;6.736;2022-07-06T15:23:56;22.80;99.90
59999;DHT22;45859;51.378;6.736;2022-07-06T15:26:21;22.70;99.90
59999;DHT22;45859;51.378;6.736;2022-07-06T15:28:47;22.70;99.90
59999;DHT22;45859;51.378;6.736;2022-07-06T15:31:13;22.80;99.90
59999;DHT22;45859;51.378;6.736;2022-07-06T15:33:39;22.80;99.90
59999;DHT22;45859;51.378;6.736;2022-07-06T15:36:05;22.80;99.90
59999;DHT22;45859;51.378;6.736;2022-07-06T15:38:31;22.80;99.90
59999;DHT22;45859;51.378;6.736;2022-07-06T15:40:57;22.50;99.90
59999;DHT22;45859;51.378;6.736;2022-07-06T15:43:26;22.50;99.90
59999;DHT22;45859;51.378;6.736;2022-07-06T15:45:56;22.60;99.90
59999;DHT22;45859;51.378;6.736;2022-07-06T15:48:21;22.60;99.90